createdAt,value
2022-12-05T00:01:30.748Z,57.00
2022-12-05T00:03:59.884Z,55.13
2022-12-05T00:06:28.541Z,58.97
2022-12-05T00:08:56.249Z,56.35
2022-12-05T00:11:27.502Z,55.40
2022-12-05T00:13:56.503Z,57.08
2022-12-05T00:16:25.626Z,57.65
2022-12-05T00:18:53.342Z,55.77
2022-12-05T00:21:22.894Z,52.65
2022-12-05T00:23:50.904Z,55.80
2022-12-05T00:26:18.253Z,55.58
2022-12-05T00:28:45.369Z,51.88
2022-12-05T00:31:16.352Z,53.28
2022-12-05T00:33:44.489Z,52.03
2022-12-05T00:36:23.402Z,55.20
2022-12-05T00:38:50.893Z,51.28
2022-12-05T00:41:24.009Z,52.92
2022-12-05T00:43:51.956Z,50.50
2022-12-05T00:46:21.987Z,52.03
2022-12-05T00:48:49.810Z,50.65
2022-12-05T00:51:20.026Z,52.10
2022-12-05T00:53:48.266Z,51.72
2022-12-05T00:56:18.457Z,54.30
2022-12-05T00:58:46.262Z,50.67
2022-12-05T01:01:20.497Z,50.92
2022-12-05T01:03:48.817Z,51.13
2022-12-05T01:06:16.468Z,53.23
2022-12-05T01:08:43.615Z,51.87
2022-12-05T01:11:11.720Z,53.03
2022-12-05T01:13:38.632Z,49.43
2022-12-05T01:16:06.222Z,48.72
2022-12-05T01:18:33.892Z,50.28
2022-12-05T01:21:00.722Z,50.42
2022-12-05T01:23:27.560Z,48.95
2022-12-05T01:25:54.502Z,49.33
2022-12-05T01:28:21.581Z,50.67
2022-12-05T01:30:49.956Z,49.42
2022-12-05T01:33:18.115Z,50.47
2022-12-05T01:35:45.259Z,49.92
2022-12-05T01:38:12.952Z,50.90
2022-12-05T01:40:40.444Z,52.30
2022-12-05T01:43:18.610Z,50.10
2022-12-05T01:45:46.785Z,51.92
2022-12-05T01:48:24.457Z,51.03
2022-12-05T01:50:51.652Z,50.20
2022-12-05T01:53:19.408Z,50.72
2022-12-05T01:55:49.094Z,49.85
2022-12-05T01:58:16.875Z,51.95
2022-12-05T02:00:43.891Z,51.05
2022-12-05T02:03:17.232Z,54.13
2022-12-05T02:05:46.262Z,51.72
2022-12-05T02:08:13.305Z,49.45
2022-12-05T02:10:52.122Z,48.53
2022-12-05T02:13:37.568Z,49.83
2022-12-05T02:16:35.015Z,48.75
2022-12-05T02:19:16.956Z,48.65
2022-12-05T02:22:19.983Z,48.20
2022-12-05T05:07:58.092Z,28.33
2022-12-05T05:30:23.496Z,34.40
2022-12-05T05:32:50.630Z,36.67
2022-12-05T05:35:17.550Z,38.63
2022-12-05T05:37:44.511Z,38.83
2022-12-05T05:40:13.869Z,35.63
2022-12-05T05:50:09.921Z,35.33
2022-12-05T05:52:38.150Z,33.63
2022-12-05T05:55:06.642Z,36.30
2022-12-05T05:57:33.563Z,34.27
2022-12-05T06:00:00.903Z,32.47
2022-12-05T06:02:33.702Z,32.97
2022-12-05T06:05:00.954Z,33.53
2022-12-05T06:07:28.233Z,31.73
2022-12-05T06:09:55.363Z,35.07
2022-12-05T06:12:22.913Z,30.53
2022-12-05T06:17:22.692Z,33.37
2022-12-05T06:19:49.549Z,30.23
2022-12-05T06:22:16.444Z,30.17
2022-12-05T06:24:43.493Z,30.53
2022-12-05T06:27:10.371Z,31.67
2022-12-05T06:29:37.454Z,30.67
2022-12-05T06:32:07.550Z,32.03
2022-12-05T06:34:35.608Z,30.87
2022-12-05T06:37:02.571Z,32.87
2022-12-05T06:39:29.503Z,31.07
2022-12-05T06:41:56.755Z,29.07
2022-12-05T06:44:26.951Z,33.67
2022-12-05T06:46:55.001Z,33.13
2022-12-05T06:49:27.860Z,33.80
2022-12-05T06:51:56.874Z,36.27
2022-12-05T06:54:24.476Z,34.20
2022-12-05T06:56:51.383Z,35.37
2022-12-05T06:59:18.299Z,30.33
2022-12-05T07:01:46.505Z,30.53
2022-12-05T07:04:15.849Z,34.40
2022-12-05T07:06:50.011Z,33.13
2022-12-05T07:09:19.824Z,34.83
2022-12-05T07:11:48.480Z,36.00
2022-12-05T07:14:39.106Z,34.17
2022-12-05T07:17:02.194Z,36.37
2022-12-05T07:19:29.076Z,37.03
2022-12-05T07:21:55.943Z,39.30
2022-12-05T07:24:22.888Z,35.17
2022-12-05T07:26:49.766Z,34.35
2022-12-05T07:29:16.711Z,36.28
2022-12-05T07:31:44.648Z,34.63
2022-12-05T07:34:12.015Z,34.50
2022-12-05T09:25:12.071Z,35.57
2022-12-05T09:27:38.954Z,35.63
2022-12-05T09:30:06.663Z,34.67
2022-12-05T09:32:33.578Z,34.27
2022-12-05T09:35:00.770Z,33.13
2022-12-05T09:37:39.295Z,32.60
2022-12-05T09:40:07.997Z,35.80
2022-12-05T09:42:34.760Z,33.30
2022-12-05T09:45:25.945Z,35.43
2022-12-05T09:48:25.573Z,31.87
2022-12-05T09:51:01.270Z,29.47
2022-12-05T09:53:34.112Z,31.30
2022-12-05T09:56:19.582Z,28.97
2022-12-05T09:58:48.390Z,31.43
2022-12-05T10:01:32.926Z,33.43
2022-12-05T10:04:17.789Z,30.90
2022-12-05T10:07:25.947Z,37.37
2022-12-05T10:10:19.778Z,34.40
2022-12-05T10:12:50.121Z,29.07
2022-12-05T10:15:25.971Z,34.47
2022-12-05T10:18:04.013Z,29.97
2022-12-05T10:20:39.076Z,29.00
2022-12-05T10:23:34.740Z,29.90
2022-12-05T10:26:07.362Z,32.50
2022-12-05T10:28:37.531Z,27.87
2022-12-05T10:31:11.408Z,28.57
2022-12-05T10:33:43.535Z,26.67
2022-12-05T10:36:12.651Z,27.43
2022-12-05T10:38:40.994Z,32.03
2022-12-05T10:41:10.216Z,27.50
2022-12-05T10:43:40.185Z,27.50
2022-12-05T10:46:09.782Z,23.83
2022-12-05T10:48:41.902Z,35.80
2022-12-05T10:51:15.292Z,24.57
2022-12-05T10:53:46.551Z,24.60
2022-12-05T10:56:38.934Z,27.10
2022-12-05T10:59:08.007Z,25.30
2022-12-05T11:01:38.927Z,30.70
2022-12-05T11:04:24.481Z,26.87
2022-12-05T11:07:02.728Z,25.10
2022-12-05T11:09:33.816Z,23.50
2022-12-05T11:12:09.702Z,23.80
2022-12-05T11:14:36.598Z,28.60
2022-12-05T11:17:06.222Z,22.93
2022-12-05T11:19:38.303Z,20.80
2022-12-05T11:22:08.490Z,19.83
2022-12-05T11:24:39.621Z,16.93
2022-12-05T11:27:42.255Z,17.43
2022-12-05T11:30:13.254Z,20.23
2022-12-05T11:32:40.189Z,17.43
2022-12-05T11:35:12.812Z,17.10
2022-12-05T11:37:39.706Z,15.33
2022-12-05T11:40:54.692Z,13.33
2022-12-05T11:43:53.555Z,16.47
2022-12-05T11:46:26.631Z,18.87
2022-12-05T11:49:26.830Z,15.27
2022-12-05T11:52:21.542Z,13.03
2022-12-05T11:55:13.887Z,13.90
2022-12-05T11:57:52.935Z,14.53
2022-12-05T12:00:31.909Z,16.63
2022-12-05T12:03:20.196Z,16.43
2022-12-05T12:06:31.881Z,17.63
2022-12-05T12:09:29.405Z,17.97
2022-12-05T12:12:12.586Z,17.37
2022-12-05T12:14:47.344Z,16.37
2022-12-05T12:17:29.198Z,16.20
2022-12-05T12:20:23.029Z,17.98
2022-12-05T12:23:14.641Z,17.38
2022-12-05T12:26:07.721Z,16.90
2022-12-05T12:28:59.395Z,18.20
2022-12-05T12:32:00.418Z,18.10
2022-12-05T12:34:33.183Z,18.90
2022-12-05T12:37:14.205Z,18.48
2022-12-05T12:40:18.683Z,24.42
2022-12-05T12:43:00.706Z,18.38
2022-12-05T12:45:27.599Z,21.60
2022-12-05T12:48:16.928Z,27.03
2022-12-05T12:50:46.779Z,23.77
2022-12-05T12:53:39.658Z,19.95
2022-12-05T12:56:12.554Z,18.70
2022-12-05T12:59:03.247Z,17.17
2022-12-05T13:01:30.253Z,17.10
2022-12-05T13:04:06.591Z,17.63
2022-12-05T13:06:48.231Z,19.35
2022-12-05T13:09:37.149Z,16.35
2022-12-05T13:12:12.388Z,16.27
2022-12-05T13:14:48.623Z,15.15
2022-12-05T13:17:19.404Z,16.42
2022-12-05T13:19:52.426Z,15.65
2022-12-05T13:22:22.442Z,17.08
2022-12-05T13:24:53.905Z,17.48
2022-12-05T13:27:27.220Z,17.08
2022-12-05T13:29:55.776Z,15.38
2022-12-05T13:32:30.636Z,17.17
2022-12-05T13:35:02.288Z,17.10
2022-12-05T13:37:50.448Z,15.40
2022-12-05T13:40:52.107Z,14.82
2022-12-05T13:43:29.063Z,15.23
2022-12-05T13:46:12.098Z,16.92
2022-12-05T13:48:43.861Z,16.38
2022-12-05T13:51:21.146Z,17.35
2022-12-05T13:53:57.231Z,14.65
2022-12-05T13:56:45.849Z,15.55
2022-12-05T13:59:12.987Z,15.98
2022-12-05T14:01:55.798Z,16.45
2022-12-05T14:04:46.321Z,17.35
2022-12-05T14:07:33.255Z,15.70
2022-12-05T14:10:00.452Z,16.97
2022-12-05T14:12:31.583Z,16.80
2022-12-05T14:15:04.230Z,17.40
2022-12-05T14:17:41.257Z,19.67
2022-12-05T14:20:30.151Z,18.40
2022-12-05T14:23:32.642Z,18.42
2022-12-05T14:26:24.568Z,17.40
2022-12-05T14:29:03.129Z,15.65
2022-12-05T14:32:04.926Z,17.08
2022-12-05T14:34:35.180Z,17.17
2022-12-05T14:37:17.310Z,16.55
2022-12-05T14:39:52.282Z,17.85
2022-12-05T14:42:24.891Z,18.55
2022-12-05T14:44:54.758Z,18.48
2022-12-05T14:47:29.007Z,19.63
2022-12-05T14:50:04.776Z,19.33
2022-12-05T14:52:32.262Z,19.75
2022-12-05T14:55:07.110Z,19.13
2022-12-05T14:57:43.971Z,17.20
2022-12-05T15:00:22.693Z,18.58
2022-12-05T15:02:52.390Z,19.47
2022-12-05T15:05:31.366Z,19.38
2022-12-05T15:08:00.319Z,19.17
2022-12-05T15:10:34.203Z,19.23
2022-12-05T15:13:25.198Z,18.95
2022-12-05T15:16:07.508Z,20.17
2022-12-05T15:18:47.469Z,21.42
2022-12-05T15:21:34.458Z,25.02
2022-12-05T15:24:04.806Z,29.98
2022-12-05T15:26:47.451Z,28.27
2022-12-05T15:29:23.563Z,34.65
2022-12-05T15:32:02.692Z,31.10
2022-12-05T15:34:53.095Z,28.70
2022-12-05T15:37:32.542Z,38.25
2022-12-05T15:40:09.939Z,33.90
2022-12-05T15:42:48.300Z,33.07
2022-12-05T15:45:15.179Z,35.75
2022-12-05T15:47:45.776Z,29.23
2022-12-05T15:50:37.419Z,28.65
2022-12-05T15:53:19.521Z,28.17
2022-12-05T15:55:54.455Z,27.20
2022-12-05T15:58:37.002Z,29.42
2022-12-05T16:01:07.218Z,29.88
2022-12-05T16:03:58.127Z,24.17
2022-12-05T16:06:44.638Z,28.38
2022-12-05T16:09:24.551Z,25.10
2022-12-05T16:12:02.895Z,27.30
2022-12-05T16:14:58.956Z,23.73
2022-12-05T16:17:22.366Z,26.50
2022-12-05T16:19:49.750Z,31.83
2022-12-05T16:22:21.682Z,28.47
2022-12-05T16:25:01.860Z,25.02
2022-12-05T16:27:39.654Z,24.25
2022-12-05T16:30:18.719Z,24.95
2022-12-05T16:32:47.479Z,26.10
2022-12-05T16:35:34.443Z,26.35
2022-12-05T16:38:17.703Z,32.30
2022-12-05T16:40:50.263Z,22.15
2022-12-05T16:43:31.939Z,30.40
2022-12-05T16:46:14.494Z,28.17
2022-12-05T16:48:49.390Z,28.23
2022-12-05T16:51:22.124Z,22.30
2022-12-05T16:53:51.154Z,20.60
2022-12-05T16:56:28.137Z,22.43
2022-12-05T16:58:55.232Z,19.60
2022-12-05T17:01:25.293Z,19.00
2022-12-05T23:52:22.752Z,22.83
2022-12-05T23:54:49.750Z,26.90
2022-12-05T23:57:17.946Z,26.02
2022-12-05T23:59:45.723Z,23.88
